Caratunk, Maine
Current Conditions -  °F | °C
As of 5:15 AM on Thursday 23 Oct 2014 (Local Time) from KWVL Reporting Station
Overcast Overcast  
Wind Chill: 40°   Ceiling: 600
Heat Index: 46°   Visibility: 7mi
Dew Point: 39°   Wind: 16mph
Humidity: 76%   Direction: 30°NNE
Pressure: 29.92"   Gusts: 24mph
Location:  45.23°N, 69.99°W
Report Text: KWVL 230915Z 03014G21KT 7SM OVC006 08/04 A2992 RMK AO1 P0001
Loading
Personal Weather Stations






























Interactive Weather Map
Tropical Storm Tracking
New forecast layout! Learn more

10-Day Weather Forecast

Advertisements
Track Severe Weather on mobile